x

South Kodiak - 310nm Ssw Of Kodiak, Ak (46066) Wave Buoy

4:50pm - Sun 28th Dec 2014 All times are UTC.

  • Sig Wave height 19.0ft
  • Swell Direction
  • Peak Period 11s
  • Average Period 9s
  • Wind
    27mph, 34mph gusts
  • Sea Temp 42°f
  • Air Temp 44°f
  • Sea Pressure 1003.7mb

More Historic Weather Station data

Upgrade to MSW Pro to gain access to the past 30 days of data for over 8000 Wavebouys and Weather Stations around the globe.

Join Pro

Comparision Forecast

View Surf forecast
   
Sun 12/28 4:50pm 19ft 11s 9s 27 34 mph 1003.7mb 42f 44f
3:50pm 18ft 11s 8s 27 31 mph 1003.7mb 42f 44f
2:50pm 16.5ft 11s 8s 27 36 mph 1003.7mb 42f 44f
1:50pm 21ft 11s 9s 27 34 mph 1003.9mb 42f 44f
12:50pm 17ft 11s 8s 29 36 mph 1004.3mb 42f 44f
11:50am 17.5ft 11s 8s 31 38 mph 1004.6mb 42f 44f
10:50am 18.5ft 11s 8s 29 36 mph 1005.6mb 42f 44f
9:50am 16.5ft 10s 8s 34 40 mph 1006.3mb 42f 44f
8:50am 17.5ft 11s 8s 34 45 mph 1007.1mb 42f 44f
7:50am 17ft 10s 8s 34 43 mph 1007.9mb 42f 44f
6:50am 16.5ft 10s 8s 36 43 mph 1008.6mb 42f 43f
5:50am 14ft 9s 7s 36 45 mph 1009.3mb 42f 44f
4:50am 15ft 10s 8s 34 43 mph 1011.1mb 42f 43f
3:50am 14ft 10s 8s 29 36 mph 1012.8mb 42f 43f
2:50am 15ft 10s 8s 29 36 mph 1014.2mb 42f 43f
1:50am 13ft 10s 8s 29 36 mph 1015.1mb 42f 43f
12:50am 15ft 10s 8s 29 36 mph 1015.7mb 42f 42f
Sat 12/27 11:50pm 15ft 10s 8s 27 31 mph 1016.6mb 42f 42f
10:50pm 15.5ft 8s 8s 29 36 mph 1017.3mb 42f 42f
9:50pm 14ft 9s 8s 31 40 mph 1018.2mb 42f 42f
8:50pm 14ft 8s 7s 31 40 mph 1019.2mb 42f 42f
7:50pm 13ft 8s 7s 31 38 mph 1019.5mb 42f 42f
6:50pm 11ft 8s 6s 34 43 mph 1019.9mb 42f 42f
5:50pm 10ft 7s 6s 34 40 mph 1019.8mb 42f 42f
4:50pm 10ft 7s 6s 31 36 mph 1020.4mb 42f 42f
3:50pm 10ft 7s 6s 31 38 mph 1021.2mb 42f 41f
2:50pm 9ft 6s 6s 29 36 mph 1022.2mb 42f 41f
1:50pm 9ft 11s 7s 27 34 mph 1023mb 42f 41f
12:50pm 9ft 14s 7s 22 29 mph 1024.3mb 42f 41f
11:50am 11ft 12s 8s 22 27 mph 1025.2mb 42f 41f
10:50am 10ft 12s 8s 22 27 mph 1025.4mb 42f 41f
9:50am 12ft 13s 9s 20 27 mph 1026.2mb 42f 41f
8:50am 11ft 15s 9s 18 25 mph 1026.3mb 42f 41f
7:50am 11ft 15s 10s 18 22 mph 1026.7mb 42f 41f
6:50am 11ft 15s 10s 16 20 mph 1026.7mb 42f 41f
5:50am 10ft 14s 10s 13 18 mph 1027.1mb 42f 41f
4:50am 10ft 15s 9s 13 18 mph 1027.2mb 42f 41f
3:50am 9ft 13s 9s 11 13 mph 1027.3mb 42f 41f
2:50am 10ft 11s 9s 9 11 mph 1027.2mb 42f 41f
1:50am 12ft 12s 10s 4 9 mph 1026.6mb 42f 41f
12:50am 13ft 14s 9s 4 7 mph 1026.7mb 42f 41f
Fri 12/26 11:50pm 13ft 14s 10s 4 7 mph 1026.8mb 42f 41f
10:50pm 13ft 14s 10s 9 11 mph 1027.2mb 42f 41f
9:50pm 12.5ft 13s 10s 11 16 mph 1027.3mb 42f 42f
8:50pm 12.5ft 13s 9s 11 16 mph 1027mb 42f 41f
7:50pm 12ft 12s 9s 13 16 mph 1026.5mb 42f 41f
6:50pm 10.5ft 11s 8s 16 18 mph 1025.7mb 42f 41f
5:50pm 11ft 13s 8s 16 18 mph 1024.7mb 42f 41f
4:50pm 12ft 14s 9s 13 18 mph 1024mb 42f 41f
3:50pm 12.5ft 14s 9s 16 20 mph 1023.4mb 42f 41f
2:50pm 12ft 14s 9s 18 22 mph 1022.8mb 42f 41f
1:50pm 11.5ft 14s 9s 16 20 mph 1022.4mb 42f 41f
12:50pm 13.5ft 14s 9s 18 22 mph 1022mb 42f 41f
11:50am 13ft 15s 9s 16 20 mph 1021.1mb 42f 41f
10:50am 15ft 15s 10s 13 18 mph 1020.6mb 42f 41f
9:50am 14ft 12s 9s 9 13 mph 1020.5mb 42f 41f
8:50am 16ft 15s 10s 18 22 mph 1020.1mb 42f 40f
7:50am 15.5ft 15s 10s 13 18 mph 1019.6mb 42f 41f
6:50am 15ft 15s 10s 9 13 mph 1019.5mb 42f 39f
5:50am 14ft 14s 10s 9 11 mph 1018.9mb 42f 38f
4:50am 13.5ft 14s 9s 7 11 mph 1018.9mb 42f 37f
3:50am 14ft 14s 9s 11 16 mph 1018.6mb 42f 38f
2:50am 13ft 13s 9s 16 20 mph 1018.1mb 42f 38f
1:50am 14ft 14s 8s 18 22 mph 1017.6mb 42f 38f
12:50am 14ft 14s 9s 16 20 mph 1017.1mb 42f 41f
Thu 12/25 11:50pm 15.5ft 14s 9s 20 27 mph 1017mb 42f 42f
10:50pm 14ft 14s 8s 20 25 mph 1017.2mb 42f 42f
9:50pm 14ft 14s 9s 22 27 mph 1017.1mb 42f 42f
8:50pm 15ft 12s 9s 22 27 mph 1017.7mb 42f 42f
7:50pm 14ft 13s 8s 25 29 mph 1017.5mb 42f 42f
6:50pm 16ft 14s 9s 25 31 mph 1017.2mb 42f 42f
5:50pm 15.5ft 14s 9s 25 31 mph 1017mb 42f 42f
4:50pm 15ft 12s 8s 25 31 mph 1016.5mb 42f 42f
3:50pm 16.5ft 14s 9s 25 29 mph 1016mb 42f 42f
2:50pm 17.5ft 11s 9s 22 29 mph 1016mb 42f 42f
1:50pm 17ft 13s 9s 25 29 mph 1015.8mb 42f 42f
11:50am 17ft 11s 9s 27 34 mph 1015.1mb 42f 42f
10:50am 15.5ft 13s 8s 27 36 mph 1014.5mb 42f 43f
9:50am 14.5ft 13s 8s 27 36 mph 1013.9mb 42f 43f
8:50am 15ft 11s 8s 25 31 mph 1013.1mb 42f 43f
7:50am 14.5ft 14s 8s 27 34 mph 1011.7mb 42f 43f
6:50am 13ft 13s 8s 29 34 mph 1010.4mb 42f 43f
5:50am 13.5ft 14s 8s 27 34 mph 1009mb 42f 43f
4:50am 13ft 14s 8s 31 40 mph 1007.4mb 42f 43f
3:50am 15ft 13s 9s 29 36 mph 1005.7mb 42f 44f
2:50am 18ft 13s 10s 27 36 mph 1004.4mb 42f 44f
1:50am 17.5ft 12s 10s 20 27 mph 1004.1mb 42f 43f
12:50am 15.5ft 13s 9s 22 27 mph 1004.2mb 42f 42f
Wed 12/24 11:50pm 15.5ft 13s 9s 20 25 mph 1005.2mb 42f 42f
10:50pm 15ft 11s 9s 18 25 mph 1006.4mb 42f 42f
9:50pm 15ft 12s 9s 18 22 mph 1007.4mb 42f 42f
8:50pm 13.5ft 12s 9s 11 16 mph 1007.1mb 42f 42f
7:50pm 14ft 11s 9s 11 13 mph 1008mb 42f 42f
6:50pm 13.5ft 11s 9s 9 11 mph 1007.4mb 42f 42f